KTDZ/TDZ METAR and TAF weather

Enter ICAO airport designator
Station Type Date Time Source
KTDZ METAR 2024/07/23 17:53 UTC NOAA

KTDZ 231753Z AUTO 21004G14KT 10SM FEW050 29/17 A3004 RMK AO2 SLP167 T02940167 10300 20206 58005


Station Type Date Time Source
KTDZ Decoded METAR 2024/07/23 17:53 UTC NOAA

TOLEDO METCALF FIELD, OH, United States (KTDZ) 41-34N 83-29W 189M
Jul 23, 2024 - 01:53 PM EDT / 2024.07.23 1753 UTC
Wind: from the SSW (210 degrees) at 5 MPH (4 KT) gusting to 16 MPH (14 KT):0
Visibility: 10 mile(s):0
Sky conditions: mostly clear
Temperature: 84.9 F (29.4 C)
Dew Point: 62.1 F (16.7 C)
Relative Humidity: 46%
Pressure (altimeter): 30.04 in. Hg (1017 hPa)
Pressure tendency: 0.01 inches (0.5 hPa) lower than three hours ago
ob: KTDZ 231753Z AUTO 21004G14KT 10SM FEW050 29/17 A3004 RMK AO2 SLP167 T02940167 10300 20206 58005
cycle: 18

Station Type Date Time Source
KTDZ TAF UTC NOAA

Error!

Example: see airport list